sensor_id;sensor_type;location;lat;lon;timestamp;P1;durP1;ratioP1;P2;durP2;ratioP2
42226;SDS011;27892;52.378;13.122;2023-06-10T00:01:37;2.15;;;2.00;;
42226;SDS011;27892;52.378;13.122;2023-06-10T00:04:03;2.53;;;2.23;;
42226;SDS011;27892;52.378;13.122;2023-06-10T00:06:29;2.25;;;2.05;;
42226;SDS011;27892;52.378;13.122;2023-06-10T00:09:04;2.20;;;2.00;;
42226;SDS011;27892;52.378;13.122;2023-06-10T00:11:33;2.30;;;2.10;;
42226;SDS011;27892;52.378;13.122;2023-06-10T00:13:59;2.42;;;2.22;;
42226;SDS011;27892;52.378;13.122;2023-06-10T00:16:25;2.60;;;2.40;;
42226;SDS011;27892;52.378;13.122;2023-06-10T00:18:51;2.38;;;2.17;;
42226;SDS011;27892;52.378;13.122;2023-06-10T00:21:17;2.60;;;2.40;;
42226;SDS011;27892;52.378;13.122;2023-06-10T00:23:44;2.53;;;2.20;;
42226;SDS011;27892;52.378;13.122;2023-06-10T00:26:09;2.78;;;2.20;;
42226;SDS011;27892;52.378;13.122;2023-06-10T00:28:35;2.10;;;1.90;;
42226;SDS011;27892;52.378;13.122;2023-06-10T00:31:01;2.13;;;1.92;;
42226;SDS011;27892;52.378;13.122;2023-06-10T00:33:27;2.00;;;1.90;;
42226;SDS011;27892;52.378;13.122;2023-06-10T00:35:53;2.42;;;2.20;;
42226;SDS011;27892;52.378;13.122;2023-06-10T00:38:18;2.65;;;2.40;;
42226;SDS011;27892;52.378;13.122;2023-06-10T00:40:44;4.70;;;3.20;;
42226;SDS011;27892;52.378;13.122;2023-06-10T00:43:10;3.00;;;2.70;;
42226;SDS011;27892;52.378;13.122;2023-06-10T00:45:35;4.20;;;2.88;;
42226;SDS011;27892;52.378;13.122;2023-06-10T00:48:01;2.40;;;2.20;;
42226;SDS011;27892;52.378;13.122;2023-06-10T00:50:28;2.30;;;2.10;;
42226;SDS011;27892;52.378;13.122;2023-06-10T00:52:56;2.90;;;2.63;;
42226;SDS011;27892;52.378;13.122;2023-06-10T00:55:22;3.60;;;2.75;;
42226;SDS011;27892;52.378;13.122;2023-06-10T00:57:49;2.70;;;2.50;;
42226;SDS011;27892;52.378;13.122;2023-06-10T01:00:16;2.40;;;2.20;;
42226;SDS011;27892;52.378;13.122;2023-06-10T01:02:42;2.80;;;2.50;;
42226;SDS011;27892;52.378;13.122;2023-06-10T01:05:08;2.30;;;2.10;;
42226;SDS011;27892;52.378;13.122;2023-06-10T01:10:38;2.50;;;2.30;;
42226;SDS011;27892;52.378;13.122;2023-06-10T01:13:11;2.40;;;2.20;;
42226;SDS011;27892;52.378;13.122;2023-06-10T01:15:38;2.40;;;2.20;;
42226;SDS011;27892;52.378;13.122;2023-06-10T01:18:06;2.25;;;1.92;;
42226;SDS011;27892;52.378;13.122;2023-06-10T01:20:40;2.20;;;2.00;;
42226;SDS011;27892;52.378;13.122;2023-06-10T01:23:08;2.97;;;2.23;;
42226;SDS011;27892;52.378;13.122;2023-06-10T01:25:38;2.60;;;2.10;;
42226;SDS011;27892;52.378;13.122;2023-06-10T01:28:13;2.28;;;2.10;;
42226;SDS011;27892;52.378;13.122;2023-06-10T01:33:17;2.43;;;2.17;;
42226;SDS011;27892;52.378;13.122;2023-06-10T01:35:49;2.07;;;1.97;;
42226;SDS011;27892;52.378;13.122;2023-06-10T01:38:16;2.43;;;2.17;;
42226;SDS011;27892;52.378;13.122;2023-06-10T01:40:44;2.83;;;2.10;;
42226;SDS011;27892;52.378;13.122;2023-06-10T01:43:12;3.57;;;2.30;;
42226;SDS011;27892;52.378;13.122;2023-06-10T01:45:38;2.63;;;2.27;;
42226;SDS011;27892;52.378;13.122;2023-06-10T01:48:04;2.43;;;2.10;;
42226;SDS011;27892;52.378;13.122;2023-06-10T01:50:30;2.23;;;2.10;;
42226;SDS011;27892;52.378;13.122;2023-06-10T01:52:56;2.20;;;2.00;;
42226;SDS011;27892;52.378;13.122;2023-06-10T01:55:23;2.00;;;1.80;;
42226;SDS011;27892;52.378;13.122;2023-06-10T01:57:49;2.20;;;2.00;;
42226;SDS011;27892;52.378;13.122;2023-06-10T02:00:14;2.20;;;2.00;;
42226;SDS011;27892;52.378;13.122;2023-06-10T02:02:40;2.13;;;1.93;;
42226;SDS011;27892;52.378;13.122;2023-06-10T02:05:06;2.10;;;1.90;;
42226;SDS011;27892;52.378;13.122;2023-06-10T02:07:32;2.03;;;1.93;;
42226;SDS011;27892;52.378;13.122;2023-06-10T02:09:57;2.17;;;1.97;;
42226;SDS011;27892;52.378;13.122;2023-06-10T02:12:23;2.30;;;2.10;;
42226;SDS011;27892;52.378;13.122;2023-06-10T02:14:49;2.07;;;1.87;;
42226;SDS011;27892;52.378;13.122;2023-06-10T02:17:15;1.90;;;1.73;;
42226;SDS011;27892;52.378;13.122;2023-06-10T02:19:41;1.97;;;1.83;;
42226;SDS011;27892;52.378;13.122;2023-06-10T02:22:08;3.10;;;2.13;;
42226;SDS011;27892;52.378;13.122;2023-06-10T02:24:35;2.00;;;1.80;;
42226;SDS011;27892;52.378;13.122;2023-06-10T02:27:03;2.40;;;2.20;;
42226;SDS011;27892;52.378;13.122;2023-06-10T02:29:32;2.10;;;1.90;;
42226;SDS011;27892;52.378;13.122;2023-06-10T02:31:59;2.87;;;2.13;;
42226;SDS011;27892;52.378;13.122;2023-06-10T02:34:24;2.27;;;2.07;;
42226;SDS011;27892;52.378;13.122;2023-06-10T02:36:50;2.50;;;2.30;;
42226;SDS011;27892;52.378;13.122;2023-06-10T02:39:16;2.00;;;1.90;;
42226;SDS011;27892;52.378;13.122;2023-06-10T02:41:42;1.90;;;1.80;;
42226;SDS011;27892;52.378;13.122;2023-06-10T02:44:07;2.30;;;1.97;;
42226;SDS011;27892;52.378;13.122;2023-06-10T02:46:33;2.00;;;1.90;;
42226;SDS011;27892;52.378;13.122;2023-06-10T02:48:58;1.80;;;1.70;;
42226;SDS011;27892;52.378;13.122;2023-06-10T02:51:24;2.33;;;2.13;;
42226;SDS011;27892;52.378;13.122;2023-06-10T02:53:50;2.93;;;2.37;;
42226;SDS011;27892;52.378;13.122;2023-06-10T02:56:16;2.10;;;1.90;;
42226;SDS011;27892;52.378;13.122;2023-06-10T02:58:42;2.33;;;2.13;;
42226;SDS011;27892;52.378;13.122;2023-06-10T03:01:08;2.17;;;2.00;;
42226;SDS011;27892;52.378;13.122;2023-06-10T03:03:35;2.17;;;1.97;;
42226;SDS011;27892;52.378;13.122;2023-06-10T03:06:02;2.03;;;1.83;;
42226;SDS011;27892;52.378;13.122;2023-06-10T03:08:28;2.60;;;2.00;;
42226;SDS011;27892;52.378;13.122;2023-06-10T03:10:54;2.00;;;1.90;;
42226;SDS011;27892;52.378;13.122;2023-06-10T03:13:19;1.90;;;1.80;;
42226;SDS011;27892;52.378;13.122;2023-06-10T03:15:46;2.00;;;1.90;;
42226;SDS011;27892;52.378;13.122;2023-06-10T03:18:11;1.97;;;1.87;;
42226;SDS011;27892;52.378;13.122;2023-06-10T03:20:37;1.90;;;1.80;;
42226;SDS011;27892;52.378;13.122;2023-06-10T03:23:04;2.17;;;2.00;;
42226;SDS011;27892;52.378;13.122;2023-06-10T03:25:32;1.97;;;1.80;;
42226;SDS011;27892;52.378;13.122;2023-06-10T03:27:57;2.00;;;1.90;;
42226;SDS011;27892;52.378;13.122;2023-06-10T03:30:23;2.20;;;2.00;;
42226;SDS011;27892;52.378;13.122;2023-06-10T03:32:49;2.40;;;2.17;;
42226;SDS011;27892;52.378;13.122;2023-06-10T03:35:14;2.90;;;2.20;;
42226;SDS011;27892;52.378;13.122;2023-06-10T03:37:40;2.07;;;1.97;;
42226;SDS011;27892;52.378;13.122;2023-06-10T03:40:07;2.03;;;1.93;;
42226;SDS011;27892;52.378;13.122;2023-06-10T03:42:34;1.90;;;1.80;;
42226;SDS011;27892;52.378;13.122;2023-06-10T03:45:00;2.23;;;2.00;;
42226;SDS011;27892;52.378;13.122;2023-06-10T03:47:26;2.53;;;2.10;;
42226;SDS011;27892;52.378;13.122;2023-06-10T03:49:51;2.37;;;2.17;;
42226;SDS011;27892;52.378;13.122;2023-06-10T03:52:18;2.47;;;2.27;;
42226;SDS011;27892;52.378;13.122;2023-06-10T03:54:43;1.90;;;1.80;;
42226;SDS011;27892;52.378;13.122;2023-06-10T03:57:09;2.03;;;1.90;;
42226;SDS011;27892;52.378;13.122;2023-06-10T03:59:35;2.77;;;2.17;;
42226;SDS011;27892;52.378;13.122;2023-06-10T04:02:00;2.13;;;2.03;;
42226;SDS011;27892;52.378;13.122;2023-06-10T04:04:26;2.30;;;2.03;;
42226;SDS011;27892;52.378;13.122;2023-06-10T04:06:52;2.57;;;2.27;;
42226;SDS011;27892;52.378;13.122;2023-06-10T04:09:18;2.20;;;2.00;;
42226;SDS011;27892;52.378;13.122;2023-06-10T04:11:43;2.20;;;2.00;;
42226;SDS011;27892;52.378;13.122;2023-06-10T04:14:09;2.93;;;2.30;;
42226;SDS011;27892;52.378;13.122;2023-06-10T04:16:35;3.37;;;2.33;;
42226;SDS011;27892;52.378;13.122;2023-06-10T04:19:00;3.07;;;2.43;;
42226;SDS011;27892;52.378;13.122;2023-06-10T04:21:26;2.53;;;2.33;;
42226;SDS011;27892;52.378;13.122;2023-06-10T04:23:52;2.85;;;2.58;;
42226;SDS011;27892;52.378;13.122;2023-06-10T04:26:18;2.90;;;2.60;;
42226;SDS011;27892;52.378;13.122;2023-06-10T04:28:44;2.40;;;2.20;;
42226;SDS011;27892;52.378;13.122;2023-06-10T04:31:09;3.07;;;2.60;;
42226;SDS011;27892;52.378;13.122;2023-06-10T04:33:35;2.50;;;2.30;;
42226;SDS011;27892;52.378;13.122;2023-06-10T04:36:01;2.57;;;2.30;;
42226;SDS011;27892;52.378;13.122;2023-06-10T04:38:27;3.63;;;2.40;;
42226;SDS011;27892;52.378;13.122;2023-06-10T04:40:53;2.53;;;2.33;;
42226;SDS011;27892;52.378;13.122;2023-06-10T04:43:19;2.77;;;2.57;;
42226;SDS011;27892;52.378;13.122;2023-06-10T04:45:44;2.53;;;2.33;;
42226;SDS011;27892;52.378;13.122;2023-06-10T04:48:10;2.73;;;2.37;;
42226;SDS011;27892;52.378;13.122;2023-06-10T04:50:36;2.65;;;2.45;;
42226;SDS011;27892;52.378;13.122;2023-06-10T04:53:02;2.15;;;2.03;;
42226;SDS011;27892;52.378;13.122;2023-06-10T04:55:28;2.50;;;2.30;;
42226;SDS011;27892;52.378;13.122;2023-06-10T04:57:54;2.38;;;2.17;;
42226;SDS011;27892;52.378;13.122;2023-06-10T05:00:20;3.42;;;2.78;;
42226;SDS011;27892;52.378;13.122;2023-06-10T05:02:46;2.60;;;2.40;;
42226;SDS011;27892;52.378;13.122;2023-06-10T05:05:16;2.53;;;2.33;;
42226;SDS011;27892;52.378;13.122;2023-06-10T05:07:42;2.92;;;2.42;;
42226;SDS011;27892;52.378;13.122;2023-06-10T05:10:08;3.15;;;2.50;;
42226;SDS011;27892;52.378;13.122;2023-06-10T05:12:34;2.67;;;2.42;;
42226;SDS011;27892;52.378;13.122;2023-06-10T05:14:59;3.42;;;2.70;;
42226;SDS011;27892;52.378;13.122;2023-06-10T05:17:25;2.10;;;2.00;;
42226;SDS011;27892;52.378;13.122;2023-06-10T05:19:51;2.38;;;2.10;;
42226;SDS011;27892;52.378;13.122;2023-06-10T05:22:16;6.88;;;4.10;;
42226;SDS011;27892;52.378;13.122;2023-06-10T05:24:43;7.30;;;4.22;;
42226;SDS011;27892;52.378;13.122;2023-06-10T05:27:09;4.60;;;4.07;;
42226;SDS011;27892;52.378;13.122;2023-06-10T05:29:35;4.72;;;3.33;;
42226;SDS011;27892;52.378;13.122;2023-06-10T05:32:01;4.20;;;3.20;;
42226;SDS011;27892;52.378;13.122;2023-06-10T05:34:29;4.00;;;3.10;;
42226;SDS011;27892;52.378;13.122;2023-06-10T05:36:55;3.92;;;2.88;;
42226;SDS011;27892;52.378;13.122;2023-06-10T05:39:20;3.35;;;2.50;;
42226;SDS011;27892;52.378;13.122;2023-06-10T05:41:46;3.90;;;3.50;;
42226;SDS011;27892;52.378;13.122;2023-06-10T05:44:11;6.03;;;3.90;;
42226;SDS011;27892;52.378;13.122;2023-06-10T05:46:37;7.15;;;4.45;;
42226;SDS011;27892;52.378;13.122;2023-06-10T05:49:03;6.72;;;5.00;;
42226;SDS011;27892;52.378;13.122;2023-06-10T05:51:28;4.68;;;3.80;;
42226;SDS011;27892;52.378;13.122;2023-06-10T05:53:54;4.65;;;3.60;;
42226;SDS011;27892;52.378;13.122;2023-06-10T05:56:20;3.90;;;3.38;;
42226;SDS011;27892;52.378;13.122;2023-06-10T05:58:47;3.40;;;3.10;;
42226;SDS011;27892;52.378;13.122;2023-06-10T06:01:13;3.50;;;2.50;;
42226;SDS011;27892;52.378;13.122;2023-06-10T06:03:39;5.95;;;3.65;;
42226;SDS011;27892;52.378;13.122;2023-06-10T06:06:05;7.55;;;4.40;;
42226;SDS011;27892;52.378;13.122;2023-06-10T06:08:30;4.22;;;3.10;;
42226;SDS011;27892;52.378;13.122;2023-06-10T06:10:56;4.80;;;3.40;;
42226;SDS011;27892;52.378;13.122;2023-06-10T06:13:22;3.80;;;2.95;;
42226;SDS011;27892;52.378;13.122;2023-06-10T06:15:49;3.45;;;2.70;;
42226;SDS011;27892;52.378;13.122;2023-06-10T06:18:15;4.28;;;3.05;;
42226;SDS011;27892;52.378;13.122;2023-06-10T06:20:41;3.42;;;3.10;;
42226;SDS011;27892;52.378;13.122;2023-06-10T06:23:06;3.17;;;2.88;;
42226;SDS011;27892;52.378;13.122;2023-06-10T06:25:34;3.22;;;2.92;;
42226;SDS011;27892;52.378;13.122;2023-06-10T06:28:01;3.58;;;2.72;;
42226;SDS011;27892;52.378;13.122;2023-06-10T06:30:27;3.97;;;3.00;;
42226;SDS011;27892;52.378;13.122;2023-06-10T06:32:52;3.22;;;2.90;;
42226;SDS011;27892;52.378;13.122;2023-06-10T06:35:18;5.05;;;3.50;;
42226;SDS011;27892;52.378;13.122;2023-06-10T06:37:44;5.15;;;4.65;;
42226;SDS011;27892;52.378;13.122;2023-06-10T06:40:10;5.40;;;3.83;;
42226;SDS011;27892;52.378;13.122;2023-06-10T06:42:36;7.13;;;4.13;;
42226;SDS011;27892;52.378;13.122;2023-06-10T06:45:01;4.03;;;3.58;;
42226;SDS011;27892;52.378;13.122;2023-06-10T06:47:27;3.20;;;2.90;;
42226;SDS011;27892;52.378;13.122;2023-06-10T06:49:53;2.67;;;2.47;;
42226;SDS011;27892;52.378;13.122;2023-06-10T06:52:19;3.90;;;3.50;;
42226;SDS011;27892;52.378;13.122;2023-06-10T06:54:44;4.68;;;3.30;;
42226;SDS011;27892;52.378;13.122;2023-06-10T06:57:10;4.13;;;3.67;;
42226;SDS011;27892;52.378;13.122;2023-06-10T06:59:36;3.70;;;3.15;;
42226;SDS011;27892;52.378;13.122;2023-06-10T07:02:02;3.80;;;3.08;;
42226;SDS011;27892;52.378;13.122;2023-06-10T07:04:28;3.63;;;3.00;;
42226;SDS011;27892;52.378;13.122;2023-06-10T07:06:54;2.83;;;2.63;;
42226;SDS011;27892;52.378;13.122;2023-06-10T07:09:19;2.85;;;2.60;;
42226;SDS011;27892;52.378;13.122;2023-06-10T07:11:45;2.60;;;2.40;;
42226;SDS011;27892;52.378;13.122;2023-06-10T07:14:11;3.03;;;2.72;;
42226;SDS011;27892;52.378;13.122;2023-06-10T07:16:36;3.58;;;3.10;;
42226;SDS011;27892;52.378;13.122;2023-06-10T07:19:02;3.47;;;2.70;;
42226;SDS011;27892;52.378;13.122;2023-06-10T07:21:29;3.88;;;3.20;;
42226;SDS011;27892;52.378;13.122;2023-06-10T07:23:55;2.70;;;2.50;;
42226;SDS011;27892;52.378;13.122;2023-06-10T07:26:21;3.33;;;3.03;;
42226;SDS011;27892;52.378;13.122;2023-06-10T07:28:47;3.72;;;3.20;;
42226;SDS011;27892;52.378;13.122;2023-06-10T07:31:13;4.68;;;3.30;;
42226;SDS011;27892;52.378;13.122;2023-06-10T07:33:39;5.63;;;4.05;;
42226;SDS011;27892;52.378;13.122;2023-06-10T07:36:05;4.80;;;4.03;;
42226;SDS011;27892;52.378;13.122;2023-06-10T07:38:31;4.00;;;3.60;;
42226;SDS011;27892;52.378;13.122;2023-06-10T07:40:57;6.30;;;5.00;;
42226;SDS011;27892;52.378;13.122;2023-06-10T07:43:23;7.00;;;5.28;;
42226;SDS011;27892;52.378;13.122;2023-06-10T07:45:49;6.68;;;5.03;;
42226;SDS011;27892;52.378;13.122;2023-06-10T07:48:15;4.97;;;3.88;;
42226;SDS011;27892;52.378;13.122;2023-06-10T07:50:40;4.15;;;3.47;;
42226;SDS011;27892;52.378;13.122;2023-06-10T07:53:06;5.15;;;4.05;;
42226;SDS011;27892;52.378;13.122;2023-06-10T07:55:32;3.63;;;3.25;;
42226;SDS011;27892;52.378;13.122;2023-06-10T07:57:57;4.72;;;4.03;;
42226;SDS011;27892;52.378;13.122;2023-06-10T08:00:23;4.38;;;3.78;;
42226;SDS011;27892;52.378;13.122;2023-06-10T08:02:49;4.18;;;3.65;;
42226;SDS011;27892;52.378;13.122;2023-06-10T08:05:15;3.83;;;3.53;;
42226;SDS011;27892;52.378;13.122;2023-06-10T08:07:41;3.50;;;3.20;;
42226;SDS011;27892;52.378;13.122;2023-06-10T08:10:07;4.90;;;4.18;;
42226;SDS011;27892;52.378;13.122;2023-06-10T08:12:33;4.40;;;4.00;;
42226;SDS011;27892;52.378;13.122;2023-06-10T08:14:59;4.75;;;3.70;;
42226;SDS011;27892;52.378;13.122;2023-06-10T08:17:26;3.80;;;3.42;;
42226;SDS011;27892;52.378;13.122;2023-06-10T08:19:51;3.13;;;2.83;;
42226;SDS011;27892;52.378;13.122;2023-06-10T08:22:17;3.63;;;3.03;;
42226;SDS011;27892;52.378;13.122;2023-06-10T08:24:43;4.60;;;3.60;;
42226;SDS011;27892;52.378;13.122;2023-06-10T08:27:09;4.35;;;3.60;;
42226;SDS011;27892;52.378;13.122;2023-06-10T08:29:35;4.07;;;3.35;;
42226;SDS011;27892;52.378;13.122;2023-06-10T08:32:01;5.28;;;4.72;;
42226;SDS011;27892;52.378;13.122;2023-06-10T08:34:27;4.80;;;4.05;;
42226;SDS011;27892;52.378;13.122;2023-06-10T08:36:53;4.10;;;3.70;;
42226;SDS011;27892;52.378;13.122;2023-06-10T08:39:20;4.40;;;3.53;;
42226;SDS011;27892;52.378;13.122;2023-06-10T08:41:50;3.65;;;3.35;;
42226;SDS011;27892;52.378;13.122;2023-06-10T08:44:28;2.97;;;2.78;;
42226;SDS011;27892;52.378;13.122;2023-06-10T08:47:01;22.58;;;20.10;;
42226;SDS011;27892;52.378;13.122;2023-06-10T08:49:30;12.32;;;11.02;;
42226;SDS011;27892;52.378;13.122;2023-06-10T08:51:59;7.32;;;6.63;;
42226;SDS011;27892;52.378;13.122;2023-06-10T08:54:27;5.30;;;4.80;;
42226;SDS011;27892;52.378;13.122;2023-06-10T08:56:57;4.93;;;4.43;;
42226;SDS011;27892;52.378;13.122;2023-06-10T08:59:25;3.95;;;3.55;;
42226;SDS011;27892;52.378;13.122;2023-06-10T09:01:52;4.20;;;3.80;;
42226;SDS011;27892;52.378;13.122;2023-06-10T09:04:18;4.88;;;4.05;;
42226;SDS011;27892;52.378;13.122;2023-06-10T09:06:45;4.05;;;3.65;;
42226;SDS011;27892;52.378;13.122;2023-06-10T09:09:11;3.80;;;3.45;;
42226;SDS011;27892;52.378;13.122;2023-06-10T09:11:38;5.57;;;3.95;;
42226;SDS011;27892;52.378;13.122;2023-06-10T09:14:07;4.40;;;3.97;;
42226;SDS011;27892;52.378;13.122;2023-06-10T09:16:32;4.13;;;3.72;;
42226;SDS011;27892;52.378;13.122;2023-06-10T09:18:58;4.20;;;3.78;;
42226;SDS011;27892;52.378;13.122;2023-06-10T09:21:24;4.10;;;3.60;;
42226;SDS011;27892;52.378;13.122;2023-06-10T09:23:51;4.40;;;3.80;;
42226;SDS011;27892;52.378;13.122;2023-06-10T09:26:17;5.63;;;4.53;;
42226;SDS011;27892;52.378;13.122;2023-06-10T09:28:49;4.70;;;4.30;;
42226;SDS011;27892;52.378;13.122;2023-06-10T09:31:16;7.88;;;5.63;;
42226;SDS011;27892;52.378;13.122;2023-06-10T09:33:46;5.25;;;4.72;;
42226;SDS011;27892;52.378;13.122;2023-06-10T09:36:21;6.28;;;4.55;;
42226;SDS011;27892;52.378;13.122;2023-06-10T09:38:49;5.05;;;4.55;;
42226;SDS011;27892;52.378;13.122;2023-06-10T09:41:16;7.10;;;5.00;;
42226;SDS011;27892;52.378;13.122;2023-06-10T09:43:43;7.95;;;4.63;;
42226;SDS011;27892;52.378;13.122;2023-06-10T09:46:16;6.00;;;4.63;;
42226;SDS011;27892;52.378;13.122;2023-06-10T09:48:43;7.35;;;5.15;;
42226;SDS011;27892;52.378;13.122;2023-06-10T09:51:10;4.88;;;4.47;;
42226;SDS011;27892;52.378;13.122;2023-06-10T09:53:36;5.43;;;4.93;;
42226;SDS011;27892;52.378;13.122;2023-06-10T09:56:02;5.70;;;5.03;;
42226;SDS011;27892;52.378;13.122;2023-06-10T09:58:38;6.45;;;5.40;;
42226;SDS011;27892;52.378;13.122;2023-06-10T10:01:10;5.60;;;4.80;;
42226;SDS011;27892;52.378;13.122;2023-06-10T10:03:47;7.40;;;5.63;;
42226;SDS011;27892;52.378;13.122;2023-06-10T10:06:14;6.60;;;5.15;;
42226;SDS011;27892;52.378;13.122;2023-06-10T10:08:40;5.57;;;4.85;;
42226;SDS011;27892;52.378;13.122;2023-06-10T10:11:06;4.53;;;4.13;;
42226;SDS011;27892;52.378;13.122;2023-06-10T10:13:33;4.68;;;4.10;;
42226;SDS011;27892;52.378;13.122;2023-06-10T10:16:00;5.90;;;4.95;;
42226;SDS011;27892;52.378;13.122;2023-06-10T10:18:29;6.60;;;5.72;;
42226;SDS011;27892;52.378;13.122;2023-06-10T10:20:56;9.20;;;5.70;;
42226;SDS011;27892;52.378;13.122;2023-06-10T10:23:48;6.15;;;4.20;;
42226;SDS011;27892;52.378;13.122;2023-06-10T10:26:26;4.82;;;4.22;;
42226;SDS011;27892;52.378;13.122;2023-06-10T10:29:05;4.40;;;4.00;;
42226;SDS011;27892;52.378;13.122;2023-06-10T10:31:55;5.28;;;4.40;;
42226;SDS011;27892;52.378;13.122;2023-06-10T10:34:24;4.22;;;3.83;;
42226;SDS011;27892;52.378;13.122;2023-06-10T10:37:05;5.25;;;3.83;;
42226;SDS011;27892;52.378;13.122;2023-06-10T10:39:31;6.78;;;5.53;;
42226;SDS011;27892;52.378;13.122;2023-06-10T10:41:59;4.30;;;3.90;;
42226;SDS011;27892;52.378;13.122;2023-06-10T10:44:25;5.97;;;4.68;;
42226;SDS011;27892;52.378;13.122;2023-06-10T10:46:52;5.10;;;4.50;;
42226;SDS011;27892;52.378;13.122;2023-06-10T10:49:19;4.38;;;3.90;;
42226;SDS011;27892;52.378;13.122;2023-06-10T10:52:00;5.82;;;4.68;;
42226;SDS011;27892;52.378;13.122;2023-06-10T10:59:51;4.30;;;3.90;;
42226;SDS011;27892;52.378;13.122;2023-06-10T11:04:56;20.95;;;5.70;;
42226;SDS011;27892;52.378;13.122;2023-06-10T11:07:24;5.65;;;4.00;;
42226;SDS011;27892;52.378;13.122;2023-06-10T11:12:41;12.50;;;8.68;;
42226;SDS011;27892;52.378;13.122;2023-06-10T11:15:10;6.10;;;5.28;;
42226;SDS011;27892;52.378;13.122;2023-06-10T11:31:24;5.32;;;4.28;;
42226;SDS011;27892;52.378;13.122;2023-06-10T11:33:53;6.45;;;4.35;;
42226;SDS011;27892;52.378;13.122;2023-06-10T11:36:21;4.88;;;4.10;;
42226;SDS011;27892;52.378;13.122;2023-06-10T11:38:53;4.60;;;4.20;;
42226;SDS011;27892;52.378;13.122;2023-06-10T11:41:26;4.20;;;3.80;;
42226;SDS011;27892;52.378;13.122;2023-06-10T11:43:53;4.32;;;3.20;;
42226;SDS011;27892;52.378;13.122;2023-06-10T11:46:21;3.90;;;3.60;;
42226;SDS011;27892;52.378;13.122;2023-06-10T11:48:51;3.88;;;3.53;;
42226;SDS011;27892;52.378;13.122;2023-06-10T11:51:17;3.80;;;3.40;;
42226;SDS011;27892;52.378;13.122;2023-06-10T11:53:47;4.38;;;3.97;;
42226;SDS011;27892;52.378;13.122;2023-06-10T11:56:16;5.20;;;3.90;;
42226;SDS011;27892;52.378;13.122;2023-06-10T11:58:52;7.32;;;4.70;;
42226;SDS011;27892;52.378;13.122;2023-06-10T12:01:26;11.57;;;5.50;;
42226;SDS011;27892;52.378;13.122;2023-06-10T12:04:08;11.27;;;4.75;;
42226;SDS011;27892;52.378;13.122;2023-06-10T12:09:13;6.32;;;5.10;;
42226;SDS011;27892;52.378;13.122;2023-06-10T12:11:43;5.32;;;4.82;;
42226;SDS011;27892;52.378;13.122;2023-06-10T12:14:09;8.65;;;4.95;;
42226;SDS011;27892;52.378;13.122;2023-06-10T12:16:35;16.38;;;5.53;;
42226;SDS011;27892;52.378;13.122;2023-06-10T12:19:04;6.05;;;5.38;;
42226;SDS011;27892;52.378;13.122;2023-06-10T12:21:32;22.33;;;13.35;;
42226;SDS011;27892;52.378;13.122;2023-06-10T12:24:05;31.67;;;23.83;;
42226;SDS011;27892;52.378;13.122;2023-06-10T12:29:23;6.50;;;5.68;;
42226;SDS011;27892;52.378;13.122;2023-06-10T12:31:57;4.97;;;4.47;;
42226;SDS011;27892;52.378;13.122;2023-06-10T12:37:05;5.40;;;5.00;;
42226;SDS011;27892;52.378;13.122;2023-06-10T12:39:38;5.30;;;4.80;;
42226;SDS011;27892;52.378;13.122;2023-06-10T12:42:05;7.47;;;4.93;;
42226;SDS011;27892;52.378;13.122;2023-06-10T12:44:34;5.30;;;4.47;;
42226;SDS011;27892;52.378;13.122;2023-06-10T12:47:06;4.85;;;3.88;;
42226;SDS011;27892;52.378;13.122;2023-06-10T12:49:33;6.25;;;3.95;;
42226;SDS011;27892;52.378;13.122;2023-06-10T12:52:00;5.50;;;4.40;;
42226;SDS011;27892;52.378;13.122;2023-06-10T12:54:26;3.70;;;3.40;;
42226;SDS011;27892;52.378;13.122;2023-06-10T12:56:51;3.80;;;3.50;;
42226;SDS011;27892;52.378;13.122;2023-06-10T12:59:18;3.90;;;3.60;;
42226;SDS011;27892;52.378;13.122;2023-06-10T13:01:44;7.88;;;5.60;;
42226;SDS011;27892;52.378;13.122;2023-06-10T13:04:15;3.88;;;3.58;;
42226;SDS011;27892;52.378;13.122;2023-06-10T13:06:42;4.60;;;4.20;;
42226;SDS011;27892;52.378;13.122;2023-06-10T13:09:07;4.05;;;3.75;;
42226;SDS011;27892;52.378;13.122;2023-06-10T13:11:33;4.30;;;3.30;;
42226;SDS011;27892;52.378;13.122;2023-06-10T13:14:00;3.47;;;3.17;;
42226;SDS011;27892;52.378;13.122;2023-06-10T13:16:27;3.60;;;3.30;;
42226;SDS011;27892;52.378;13.122;2023-06-10T13:18:53;3.67;;;3.38;;
42226;SDS011;27892;52.378;13.122;2023-06-10T13:21:19;3.72;;;3.42;;
42226;SDS011;27892;52.378;13.122;2023-06-10T13:23:46;8.32;;;7.28;;
42226;SDS011;27892;52.378;13.122;2023-06-10T13:26:13;6.88;;;6.28;;
42226;SDS011;27892;52.378;13.122;2023-06-10T13:28:41;6.13;;;5.22;;
42226;SDS011;27892;52.378;13.122;2023-06-10T13:31:07;5.45;;;4.95;;
42226;SDS011;27892;52.378;13.122;2023-06-10T13:33:33;4.97;;;4.38;;
42226;SDS011;27892;52.378;13.122;2023-06-10T13:35:59;5.07;;;4.35;;
42226;SDS011;27892;52.378;13.122;2023-06-10T13:38:24;4.68;;;4.18;;
42226;SDS011;27892;52.378;13.122;2023-06-10T13:40:50;6.10;;;5.28;;
42226;SDS011;27892;52.378;13.122;2023-06-10T13:43:16;5.28;;;4.78;;
42226;SDS011;27892;52.378;13.122;2023-06-10T13:45:42;7.78;;;4.93;;
42226;SDS011;27892;52.378;13.122;2023-06-10T13:48:08;5.85;;;4.82;;
42226;SDS011;27892;52.378;13.122;2023-06-10T13:50:34;5.68;;;5.07;;
42226;SDS011;27892;52.378;13.122;2023-06-10T13:52:59;5.18;;;4.65;;
42226;SDS011;27892;52.378;13.122;2023-06-10T13:55:25;4.38;;;3.97;;
42226;SDS011;27892;52.378;13.122;2023-06-10T13:57:51;5.38;;;4.47;;
42226;SDS011;27892;52.378;13.122;2023-06-10T14:00:16;5.00;;;4.60;;
42226;SDS011;27892;52.378;13.122;2023-06-10T14:02:42;4.40;;;4.00;;
42226;SDS011;27892;52.378;13.122;2023-06-10T14:05:08;6.78;;;5.70;;
42226;SDS011;27892;52.378;13.122;2023-06-10T14:07:34;5.32;;;4.50;;
42226;SDS011;27892;52.378;13.122;2023-06-10T14:10:00;6.68;;;4.38;;
42226;SDS011;27892;52.378;13.122;2023-06-10T14:12:25;5.65;;;3.65;;
42226;SDS011;27892;52.378;13.122;2023-06-10T14:14:51;13.32;;;5.53;;
42226;SDS011;27892;52.378;13.122;2023-06-10T14:17:17;5.35;;;4.07;;
42226;SDS011;27892;52.378;13.122;2023-06-10T14:19:42;4.80;;;4.40;;
42226;SDS011;27892;52.378;13.122;2023-06-10T14:22:08;10.35;;;8.52;;
42226;SDS011;27892;52.378;13.122;2023-06-10T14:24:34;13.40;;;7.60;;
42226;SDS011;27892;52.378;13.122;2023-06-10T14:27:01;10.07;;;5.38;;
42226;SDS011;27892;52.378;13.122;2023-06-10T14:29:27;8.93;;;5.18;;
42226;SDS011;27892;52.378;13.122;2023-06-10T14:31:54;12.40;;;6.22;;
42226;SDS011;27892;52.378;13.122;2023-06-10T14:34:20;5.45;;;4.63;;
42226;SDS011;27892;52.378;13.122;2023-06-10T14:36:48;5.03;;;4.05;;
42226;SDS011;27892;52.378;13.122;2023-06-10T14:39:14;3.70;;;3.40;;
42226;SDS011;27892;52.378;13.122;2023-06-10T14:41:40;3.70;;;3.38;;
42226;SDS011;27892;52.378;13.122;2023-06-10T14:44:05;3.38;;;3.08;;
42226;SDS011;27892;52.378;13.122;2023-06-10T14:46:31;3.40;;;3.00;;
42226;SDS011;27892;52.378;13.122;2023-06-10T14:48:57;3.03;;;2.83;;
42226;SDS011;27892;52.378;13.122;2023-06-10T14:51:24;3.05;;;2.85;;
42226;SDS011;27892;52.378;13.122;2023-06-10T14:53:50;3.28;;;2.97;;
42226;SDS011;27892;52.378;13.122;2023-06-10T14:56:15;3.35;;;3.05;;
42226;SDS011;27892;52.378;13.122;2023-06-10T14:58:41;4.15;;;3.75;;
42226;SDS011;27892;52.378;13.122;2023-06-10T15:01:07;4.13;;;3.72;;
42226;SDS011;27892;52.378;13.122;2023-06-10T15:03:32;4.43;;;4.03;;
42226;SDS011;27892;52.378;13.122;2023-06-10T15:05:58;4.22;;;3.92;;
42226;SDS011;27892;52.378;13.122;2023-06-10T15:08:25;3.92;;;3.63;;
42226;SDS011;27892;52.378;13.122;2023-06-10T15:10:53;4.25;;;3.95;;